createdAt,value
2022-11-24T00:01:05.540Z,94910.97
2022-11-24T00:03:33.817Z,94910.56
2022-11-24T00:06:07.447Z,94907.44
2022-11-24T00:08:37.166Z,94904.22
2022-11-24T00:11:06.854Z,94906.06
2022-11-24T00:13:35.171Z,94908.94
2022-11-24T00:16:10.898Z,94913.44
2022-11-24T00:18:39.638Z,94908.47
2022-11-24T00:21:08.268Z,94908.53
2022-11-24T00:23:38.333Z,94915.78
2022-11-24T00:26:07.857Z,94910.00
2022-11-24T00:28:36.551Z,94903.69
2022-11-24T00:31:04.893Z,94904.72
2022-11-24T00:33:35.845Z,94900.78
2022-11-24T00:36:04.115Z,94913.22
2022-11-24T00:38:32.365Z,94915.03
2022-11-24T00:41:02.015Z,94924.34
2022-11-24T00:43:30.275Z,94919.09
2022-11-24T00:45:58.606Z,94925.00
2022-11-24T00:48:26.967Z,94921.84
2022-11-24T00:50:58.949Z,94912.09
2022-11-24T00:53:27.505Z,94923.22
2022-11-24T00:55:55.892Z,94928.75
2022-11-24T00:58:25.905Z,94925.31
2022-11-24T01:00:54.190Z,94933.47
2022-11-24T01:03:22.753Z,94945.09
2022-11-24T01:05:51.262Z,94937.97
2022-11-24T01:08:19.505Z,94937.69
2022-11-24T01:10:47.775Z,94939.28
2022-11-24T01:13:16.125Z,94946.94
2022-11-24T01:15:45.954Z,94939.81
2022-11-24T01:18:15.599Z,94945.91
2022-11-24T01:20:43.894Z,94953.59
2022-11-24T01:23:12.171Z,94954.63
2022-11-24T01:25:40.904Z,94961.75
2022-11-24T01:28:09.366Z,94957.03
2022-11-24T01:30:37.710Z,94968.19
2022-11-24T01:33:07.678Z,94960.00
2022-11-24T01:35:35.913Z,94971.09
2022-11-24T01:38:04.143Z,94973.50
2022-11-24T01:40:32.325Z,94966.38
2022-11-24T01:43:00.600Z,94972.47
2022-11-24T01:45:32.800Z,94973.81
2022-11-24T01:48:02.776Z,94979.91
2022-11-24T01:50:32.779Z,94982.31
2022-11-24T01:53:00.996Z,94987.84
2022-11-24T01:55:31.126Z,94991.28
2022-11-24T01:58:01.130Z,94999.22
2022-11-24T02:00:29.700Z,95002.97
2022-11-24T02:02:58.041Z,95009.56
2022-11-24T02:05:29.491Z,95008.53
2022-11-24T02:08:00.563Z,95007.97
2022-11-24T02:10:28.879Z,95009.25
2022-11-24T02:12:58.246Z,95009.50
2022-11-24T02:15:26.517Z,95016.88
2022-11-24T02:17:54.767Z,95022.44
2022-11-24T02:20:23.215Z,95020.25
2022-11-24T02:22:54.556Z,95022.34
2022-11-24T02:25:31.863Z,95024.44
2022-11-24T02:28:01.580Z,95019.38
2022-11-24T02:30:29.846Z,95031.50
2022-11-24T02:32:58.090Z,95033.34
2022-11-24T02:35:28.113Z,95024.84
2022-11-24T02:37:56.358Z,95029.84
2022-11-24T02:40:25.909Z,95030.88
2022-11-24T02:42:54.903Z,95043.31
2022-11-24T02:45:24.593Z,95037.22
2022-11-24T02:47:52.813Z,95041.94
2022-11-24T02:50:21.078Z,95042.75
2022-11-24T02:52:49.587Z,95042.97
2022-11-24T02:55:17.968Z,95051.16
2022-11-24T02:57:46.284Z,95056.75
2022-11-24T03:00:15.476Z,95054.34
2022-11-24T03:02:45.253Z,95051.16
2022-11-24T03:05:13.854Z,95047.69
2022-11-24T03:07:42.189Z,95045.31
2022-11-24T03:10:10.869Z,95056.69
2022-11-24T03:12:39.099Z,95046.09
2022-11-24T03:15:08.037Z,95049.78
2022-11-24T03:17:36.336Z,95056.44
2022-11-24T03:20:07.136Z,95053.78
2022-11-24T03:22:35.383Z,95056.44
2022-11-24T03:25:03.593Z,95056.19
2022-11-24T03:27:31.958Z,95058.84
2022-11-24T03:30:00.168Z,95056.75
2022-11-24T03:32:28.691Z,95061.00
2022-11-24T03:34:56.971Z,95066.88
2022-11-24T03:37:26.620Z,95069.00
2022-11-24T03:39:54.933Z,95065.78
2022-11-24T03:42:23.281Z,95065.78
2022-11-24T03:44:51.469Z,95069.00
2022-11-24T03:47:20.962Z,95067.16
2022-11-24T03:49:49.246Z,95075.19
2022-11-24T03:52:17.475Z,95086.28
2022-11-24T03:54:47.897Z,95077.81
2022-11-24T03:57:16.141Z,95077.81
2022-11-24T03:59:44.671Z,95082.84
2022-11-24T04:02:12.905Z,95088.94
2022-11-24T04:04:44.663Z,95087.09
2022-11-24T04:07:15.345Z,95098.22
2022-11-24T04:09:43.741Z,95103.53
2022-11-24T04:12:42.674Z,95098.00
2022-11-24T04:15:11.368Z,95111.78
2022-11-24T04:17:39.641Z,95109.94
2022-11-24T04:20:08.929Z,95108.09
2022-11-24T04:22:37.211Z,95116.31
2022-11-24T04:25:06.224Z,95118.72
2022-11-24T04:27:35.984Z,95121.13
2022-11-24T04:30:04.292Z,95128.84
2022-11-24T04:32:32.585Z,95120.91
2022-11-24T04:35:00.833Z,95131.25
2022-11-24T04:37:29.068Z,95132.84
2022-11-24T04:39:57.589Z,95135.00
2022-11-24T04:42:25.882Z,95134.41
2022-11-24T04:44:55.723Z,95138.94
2022-11-24T04:47:24.928Z,95142.34
2022-11-24T04:49:53.113Z,95151.91
2022-11-24T04:52:22.564Z,95148.44
2022-11-24T04:54:51.092Z,95150.06
2022-11-24T04:57:19.858Z,95155.91
2022-11-24T04:59:48.101Z,95145.31
2022-11-24T05:02:17.686Z,95153.50
2022-11-24T05:04:46.113Z,95164.66
2022-11-24T05:07:18.405Z,95169.94
2022-11-24T05:10:04.994Z,95170.75
2022-11-24T05:12:33.235Z,95175.22
2022-11-24T05:15:01.653Z,95177.63
2022-11-24T05:17:31.492Z,95177.41
2022-11-24T05:19:59.724Z,95177.16
2022-11-24T05:22:29.445Z,95183.50
2022-11-24T05:24:57.646Z,95185.09
2022-11-24T05:27:25.787Z,95192.78
2022-11-24T05:29:53.986Z,95185.16
2022-11-24T05:32:22.186Z,95192.38
2022-11-24T05:34:53.114Z,95195.31
2022-11-24T05:37:22.681Z,95193.81
2022-11-24T05:39:50.899Z,95202.56
2022-11-24T05:42:36.288Z,95194.09
2022-11-24T05:45:04.569Z,95204.84
2022-11-24T05:47:32.765Z,95213.09
2022-11-24T05:50:02.656Z,95207.56
2022-11-24T05:52:30.906Z,95209.16
2022-11-24T05:54:59.108Z,95213.44
2022-11-24T05:57:27.363Z,95208.59
2022-11-24T05:59:55.594Z,95217.25
2022-11-24T06:02:23.925Z,95215.94
2022-11-24T06:04:52.765Z,95213.53
2022-11-24T06:07:22.665Z,95224.91
2022-11-24T06:09:50.965Z,95233.66
2022-11-24T06:12:19.259Z,95235.50
2022-11-24T06:14:47.412Z,95233.66
2022-11-24T06:17:15.854Z,95239.75
2022-11-24T06:19:47.859Z,95234.47
2022-11-24T06:22:16.091Z,95241.88
2022-11-24T06:24:46.150Z,95250.63
2022-11-24T06:27:14.903Z,95254.09
2022-11-24T06:29:43.145Z,95259.38
2022-11-24T06:32:11.616Z,95257.25
2022-11-24T06:34:39.871Z,95257.78
2022-11-24T06:37:08.095Z,95258.03
2022-11-24T06:39:36.331Z,95260.13
2022-11-24T06:42:06.066Z,95251.84
2022-11-24T06:44:34.904Z,95249.69
2022-11-24T06:47:03.325Z,95255.78
2022-11-24T06:49:31.507Z,95257.63
2022-11-24T06:51:59.738Z,95250.47
2022-11-24T06:54:27.928Z,95255.06
2022-11-24T06:56:57.750Z,95248.72
2022-11-24T06:59:27.785Z,95265.19
2022-11-24T07:01:56.258Z,95262.91
2022-11-24T07:04:24.527Z,95272.47
2022-11-24T07:06:52.722Z,95266.44
2022-11-24T07:09:20.964Z,95265.38
2022-11-24T07:11:49.460Z,95269.41
2022-11-24T07:14:19.209Z,95268.66
2022-11-24T07:16:48.897Z,95277.91
2022-11-24T07:19:23.088Z,95281.91
2022-11-24T07:21:53.043Z,95282.78
2022-11-24T07:24:21.260Z,95284.63
2022-11-24T07:26:49.489Z,95295.53
2022-11-24T07:29:17.733Z,95298.03
2022-11-24T07:31:46.409Z,95306.59
2022-11-24T07:34:16.068Z,95298.41
2022-11-24T07:36:45.171Z,95301.63
2022-11-24T07:39:13.707Z,95304.56
2022-11-24T07:41:41.936Z,95303.50
2022-11-24T07:44:10.165Z,95297.19
2022-11-24T07:46:38.383Z,95303.59
2022-11-24T07:49:06.792Z,95310.25
2022-11-24T07:51:37.296Z,95309.50
2022-11-24T07:54:05.596Z,95314.34
2022-11-24T07:56:33.793Z,95303.22
2022-11-24T07:59:02.029Z,95314.72
2022-11-24T08:01:30.337Z,95317.66
2022-11-24T08:03:58.756Z,95321.66
2022-11-24T08:06:37.470Z,95319.34
2022-11-24T08:09:10.349Z,95321.00
2022-11-24T08:11:38.568Z,95311.50
2022-11-24T08:14:06.871Z,95324.81
2022-11-24T08:16:35.105Z,95321.97
2022-11-24T08:19:03.600Z,95318.81
2022-11-24T08:21:32.582Z,95327.09
2022-11-24T08:24:00.767Z,95324.97
2022-11-24T08:26:30.500Z,95333.25
2022-11-24T08:28:59.304Z,95329.06
2022-11-24T08:31:32.959Z,95337.31
2022-11-24T08:34:01.791Z,95327.03
2022-11-24T08:36:30.113Z,95342.16
2022-11-24T08:38:58.859Z,95344.66
2022-11-24T08:41:27.261Z,95343.34
2022-11-24T08:43:56.896Z,95346.53
2022-11-24T08:46:25.470Z,95347.91
2022-11-24T08:48:54.772Z,95339.22
2022-11-24T08:51:23.670Z,95341.66
2022-11-24T08:53:54.775Z,95336.94
2022-11-24T08:56:22.919Z,95334.38
2022-11-24T08:58:51.203Z,95335.81
2022-11-24T09:01:21.218Z,95335.66
2022-11-24T09:03:51.251Z,95331.72
2022-11-24T09:06:19.880Z,95329.69
2022-11-24T09:08:48.617Z,95338.50
2022-11-24T09:11:17.292Z,95338.88
2022-11-24T09:13:45.534Z,95349.81
2022-11-24T09:16:15.661Z,95343.47
2022-11-24T09:18:45.380Z,95336.81
2022-11-24T09:21:14.662Z,95337.84
2022-11-24T09:23:42.964Z,95340.81
2022-11-24T09:26:12.426Z,95337.91
2022-11-24T09:28:40.760Z,95345.63
2022-11-24T09:31:10.609Z,95337.13
2022-11-24T09:33:39.081Z,95338.22
2022-11-24T09:36:09.239Z,95350.22
2022-11-24T09:38:37.484Z,95347.56
2022-11-24T09:41:39.040Z,95347.31
2022-11-24T09:44:15.188Z,95343.91
2022-11-24T09:46:49.831Z,95344.44
2022-11-24T09:49:20.098Z,95354.56
2022-11-24T09:51:49.931Z,95343.19
2022-11-24T09:54:19.790Z,95352.25
2022-11-24T09:56:47.993Z,95353.88
2022-11-24T09:59:16.887Z,95350.41
2022-11-24T10:01:45.941Z,95351.81
2022-11-24T10:04:16.895Z,95353.41
2022-11-24T10:06:46.944Z,95352.13
2022-11-24T10:09:25.818Z,95353.97
2022-11-24T10:11:59.247Z,95357.44
2022-11-24T10:14:49.214Z,95359.84
2022-11-24T10:17:23.640Z,95364.91
2022-11-24T10:19:54.386Z,95368.38
2022-11-24T10:22:29.267Z,95378.19
2022-11-24T10:25:09.357Z,95374.25
2022-11-24T10:27:38.791Z,95367.63
2022-11-24T10:30:13.750Z,95372.72
2022-11-24T10:32:43.689Z,95371.22
2022-11-24T10:35:16.170Z,95371.25
2022-11-24T10:37:47.100Z,95369.91
2022-11-24T10:40:48.776Z,95367.81
2022-11-24T10:43:11.103Z,95366.47
2022-11-24T10:45:39.720Z,95377.38
2022-11-24T10:48:11.657Z,95364.28
2022-11-24T10:50:40.388Z,95369.34
2022-11-24T10:53:15.886Z,95367.97
2022-11-24T10:56:02.635Z,95374.38
2022-11-24T10:58:37.300Z,95369.81
2022-11-24T11:01:21.309Z,95371.69
2022-11-24T11:03:50.553Z,95373.25
2022-11-24T11:06:22.729Z,95374.34
2022-11-24T11:08:51.003Z,95371.41
2022-11-24T11:11:24.234Z,95374.59
2022-11-24T11:14:01.678Z,95370.31
2022-11-24T11:16:35.141Z,95378.84
2022-11-24T11:19:15.714Z,95383.63
2022-11-24T11:21:51.841Z,95390.56
2022-11-24T11:24:20.143Z,95389.22
2022-11-24T11:26:49.766Z,95394.03
2022-11-24T11:35:07.679Z,95390.06
2022-11-24T11:37:36.378Z,95388.75
2022-11-24T11:40:04.692Z,95397.78
2022-11-24T11:43:01.472Z,95390.59
2022-11-24T11:45:29.238Z,95386.84
2022-11-24T11:48:00.255Z,95397.50
2022-11-24T11:50:31.388Z,95394.59
2022-11-24T11:53:05.719Z,95397.78
2022-11-24T11:55:46.584Z,95395.41
2022-11-24T11:58:28.215Z,95398.63
2022-11-24T12:01:00.092Z,95396.47
2022-11-24T12:03:49.013Z,95396.00
2022-11-24T12:06:24.329Z,95391.22
2022-11-24T12:11:50.045Z,95397.13
2022-11-24T12:14:24.483Z,95391.78
2022-11-24T12:16:57.551Z,95396.03
2022-11-24T12:19:45.022Z,95385.91
2022-11-24T12:22:17.469Z,95397.38
2022-11-24T12:24:49.087Z,95391.75
2022-11-24T12:27:23.300Z,95398.16
2022-11-24T12:30:01.104Z,95402.66
2022-11-24T12:32:54.284Z,95409.06
2022-11-24T12:35:25.140Z,95404.28
2022-11-24T12:37:58.515Z,95409.59
2022-11-24T12:40:33.611Z,95414.63
2022-11-24T12:43:07.072Z,95417.31
2022-11-24T12:45:41.428Z,95414.63
2022-11-24T12:48:19.791Z,95425.56
2022-11-24T12:50:48.004Z,95420.72
2022-11-24T12:53:17.267Z,95424.44
2022-11-24T12:55:45.669Z,95423.09
2022-11-24T12:58:18.212Z,95424.41
2022-11-24T13:00:56.268Z,95426.28
2022-11-24T13:03:34.055Z,95425.19
2022-11-24T13:06:03.947Z,95425.72
2022-11-24T13:08:33.438Z,95432.34
2022-11-24T13:11:34.592Z,95434.75
2022-11-24T13:14:03.903Z,95440.09
2022-11-24T13:16:44.395Z,95436.31
2022-11-24T13:19:22.228Z,95443.81
2022-11-24T13:22:15.130Z,95439.53
2022-11-24T13:24:44.923Z,95446.97
2022-11-24T13:27:43.725Z,95444.56
2022-11-24T13:30:52.083Z,95452.81
2022-11-24T13:33:33.820Z,95450.13
2022-11-24T13:36:32.832Z,95450.94
2022-11-24T13:39:01.363Z,95452.53
2022-11-24T13:42:41.106Z,95455.44
2022-11-24T13:45:00.202Z,95459.16
2022-11-24T13:47:42.520Z,95459.94
2022-11-24T13:50:25.780Z,95458.34
2022-11-24T13:53:00.928Z,95471.09
2022-11-24T13:55:34.612Z,95469.50
2022-11-24T13:58:28.459Z,95460.72
2022-11-24T14:01:02.902Z,95468.69
2022-11-24T14:03:31.771Z,95473.78
2022-11-24T14:06:01.631Z,95478.84
2022-11-24T14:08:31.135Z,95475.63
2022-11-24T14:11:00.065Z,95481.44
2022-11-24T14:13:29.133Z,95477.19
2022-11-24T14:16:02.380Z,95488.63
2022-11-24T14:18:31.496Z,95492.31
2022-11-24T14:21:01.570Z,95500.00
2022-11-24T14:23:29.847Z,95492.00
2022-11-24T14:25:58.048Z,95496.47
2022-11-24T14:28:27.620Z,95494.03
2022-11-24T14:31:07.885Z,95504.59
2022-11-24T14:33:37.683Z,95505.56
2022-11-24T14:36:14.550Z,95502.53
2022-11-24T14:38:42.775Z,95511.47
2022-11-24T14:41:25.980Z,95519.03
2022-11-24T14:44:07.897Z,95530.59
2022-11-24T14:46:36.282Z,95520.94
2022-11-24T14:49:04.790Z,95523.47
2022-11-24T14:51:35.466Z,95528.13
2022-11-24T14:54:04.524Z,95532.03
2022-11-24T14:56:33.882Z,95531.69
2022-11-24T14:59:02.051Z,95534.84
2022-11-24T15:01:32.912Z,95537.75
2022-11-24T15:04:32.852Z,95542.03
2022-11-24T15:07:14.530Z,95542.50
2022-11-24T15:09:51.322Z,95542.75
2022-11-24T15:12:28.581Z,95540.84
2022-11-24T15:14:58.160Z,95537.88
2022-11-24T15:17:27.665Z,95543.94
2022-11-24T15:19:56.834Z,95544.59
2022-11-24T15:22:36.901Z,95546.28
2022-11-24T15:25:05.443Z,95548.22
2022-11-24T15:27:33.610Z,95543.66
2022-11-24T15:30:01.841Z,95542.78
2022-11-24T15:32:30.025Z,95555.88
2022-11-24T15:34:58.224Z,95551.78
2022-11-24T15:37:31.319Z,95561.81
2022-11-24T15:40:03.873Z,95560.78
2022-11-24T15:42:32.082Z,95569.94
2022-11-24T15:45:00.354Z,95571.31
2022-11-24T15:47:28.555Z,95564.47
2022-11-24T15:49:56.747Z,95570.31
2022-11-24T15:52:24.980Z,95575.31
2022-11-24T15:54:54.589Z,95575.56
2022-11-24T15:57:24.213Z,95585.44
2022-11-24T15:59:52.648Z,95579.34
2022-11-24T16:02:21.904Z,95585.19
2022-11-24T16:04:51.362Z,95589.78
2022-11-24T16:07:19.566Z,95588.97
2022-11-24T16:09:47.772Z,95591.63
2022-11-24T16:12:16.006Z,95595.72
2022-11-24T16:14:45.678Z,95604.81
2022-11-24T16:17:13.899Z,95602.22
2022-11-24T16:19:42.423Z,95599.38
2022-11-24T16:22:10.619Z,95603.66
2022-11-24T16:24:38.852Z,95604.47
2022-11-24T16:27:07.040Z,95602.59
2022-11-24T16:29:38.380Z,95605.78
2022-11-24T16:32:08.809Z,95604.41
2022-11-24T16:34:37.195Z,95600.06
2022-11-24T16:37:05.612Z,95609.56
2022-11-24T16:39:33.811Z,95617.19
2022-11-24T16:42:01.984Z,95627.97
2022-11-24T16:44:30.248Z,95629.75
2022-11-24T16:46:59.230Z,95627.25
2022-11-24T16:49:28.836Z,95632.97
2022-11-24T16:51:57.005Z,95635.28
2022-11-24T16:54:25.692Z,95621.13
2022-11-24T16:56:53.951Z,95616.81
2022-11-24T16:59:22.167Z,95621.78
2022-11-24T17:01:50.899Z,95623.84
2022-11-24T17:04:19.317Z,95628.28
2022-11-24T17:06:48.963Z,95625.78
2022-11-24T17:09:18.864Z,95620.63
2022-11-24T17:11:47.092Z,95627.44
2022-11-24T17:14:16.264Z,95635.13
2022-11-24T17:16:44.577Z,95633.22
2022-11-24T17:19:12.955Z,95631.75
2022-11-24T17:21:41.165Z,95635.53
2022-11-24T17:24:15.530Z,95643.41
2022-11-24T17:26:48.780Z,95637.09
2022-11-24T17:29:17.657Z,95646.22
2022-11-24T17:31:46.016Z,95648.44
2022-11-24T17:34:14.306Z,95644.41
2022-11-24T17:36:44.819Z,95649.25
2022-11-24T17:39:14.511Z,95650.16
2022-11-24T17:41:42.993Z,95652.94
2022-11-24T17:44:12.711Z,95643.16
2022-11-24T17:46:40.919Z,95652.72
2022-11-24T17:49:13.131Z,95641.66
2022-11-24T17:51:41.432Z,95647.44
2022-11-24T17:54:44.863Z,95656.56
2022-11-24T17:56:59.616Z,95654.81
2022-11-24T17:59:27.807Z,95652.97
2022-11-24T18:01:56.106Z,95653.13
2022-11-24T18:04:24.354Z,95662.69
2022-11-24T18:06:52.607Z,95667.16
2022-11-24T18:09:21.177Z,95674.06
2022-11-24T18:11:52.015Z,95678.69
2022-11-24T18:14:21.695Z,95679.47
2022-11-24T18:16:50.209Z,95687.88
2022-11-24T18:19:18.492Z,95682.09
2022-11-24T18:21:47.013Z,95695.00
2022-11-24T18:24:17.481Z,95693.97
2022-11-24T18:26:50.275Z,95704.66
2022-11-24T18:29:18.450Z,95706.84
2022-11-24T18:31:48.125Z,95704.00
2022-11-24T18:34:16.396Z,95711.22
2022-11-24T18:36:47.503Z,95712.38
2022-11-24T18:39:18.152Z,95710.31
2022-11-24T18:41:46.490Z,95714.13
2022-11-24T18:44:14.719Z,95714.56
2022-11-24T18:46:42.941Z,95720.56
2022-11-24T18:49:12.570Z,95711.56
2022-11-24T18:51:40.852Z,95704.09
2022-11-24T18:54:09.157Z,95707.69
2022-11-24T18:56:38.672Z,95705.72
2022-11-24T18:59:07.299Z,95708.00
2022-11-24T19:01:35.732Z,95710.88
2022-11-24T19:04:04.053Z,95713.75
2022-11-24T19:06:34.545Z,95709.38
2022-11-24T19:09:04.239Z,95713.72
2022-11-24T19:11:33.895Z,95710.94
2022-11-24T19:14:02.204Z,95700.69
2022-11-24T19:16:32.422Z,95709.28
2022-11-24T19:19:02.895Z,95709.97
2022-11-24T19:21:33.644Z,95714.22
2022-11-24T19:24:05.314Z,95714.56
2022-11-24T19:26:35.024Z,95713.53
2022-11-24T19:29:03.471Z,95721.56
2022-11-24T19:31:31.908Z,95721.56
2022-11-24T19:34:00.211Z,95723.97
2022-11-24T19:36:28.467Z,95734.72
2022-11-24T19:38:58.694Z,95728.91
2022-11-24T19:41:27.662Z,95738.00
2022-11-24T19:43:56.734Z,95733.28
2022-11-24T19:46:26.518Z,95730.94
2022-11-24T19:48:56.238Z,95736.03
2022-11-24T19:51:25.516Z,95743.50
2022-11-24T19:53:53.873Z,95738.78
2022-11-24T19:56:24.520Z,95741.44
2022-11-24T19:58:53.023Z,95752.84
2022-11-24T20:01:22.169Z,95755.50
2022-11-24T20:03:55.857Z,95753.66
2022-11-24T20:06:24.078Z,95754.69
2022-11-24T20:08:52.275Z,95753.66
2022-11-24T20:11:21.237Z,95754.69
2022-11-24T20:13:51.769Z,95755.25
2022-11-24T20:16:20.862Z,95756.31
2022-11-24T20:18:49.336Z,95758.97
2022-11-24T20:21:18.600Z,95766.41
2022-11-24T20:23:48.260Z,95755.81
2022-11-24T20:26:19.576Z,95762.50
2022-11-24T20:28:47.758Z,95770.22
2022-11-24T20:31:18.712Z,95770.69
2022-11-24T20:33:47.027Z,95771.72
2022-11-24T20:36:16.170Z,95771.97
2022-11-24T20:38:44.833Z,95770.91
2022-11-24T20:41:14.126Z,95775.41
2022-11-24T20:43:42.706Z,95787.31
2022-11-24T20:46:12.500Z,95779.91
2022-11-24T20:48:42.165Z,95780.97
2022-11-24T20:51:13.294Z,95778.56
2022-11-24T20:53:41.502Z,95784.91
2022-11-24T20:56:10.957Z,95780.41
2022-11-24T20:58:39.162Z,95791.81
2022-11-24T21:01:07.791Z,95788.13
2022-11-24T21:03:42.619Z,95792.84
2022-11-24T21:06:13.282Z,95789.41
2022-11-24T21:08:42.685Z,95787.56
2022-11-24T21:11:12.294Z,95785.72
2022-11-24T21:13:41.006Z,95791.81
2022-11-24T21:16:15.451Z,95792.38
2022-11-24T21:18:44.574Z,95792.63
2022-11-24T21:21:14.288Z,95793.66
2022-11-24T21:23:42.513Z,95797.34
2022-11-24T21:26:16.261Z,95793.09
2022-11-24T21:28:45.340Z,95792.50
2022-11-24T21:31:15.087Z,95787.22
2022-11-24T21:33:44.875Z,95795.16
2022-11-24T21:36:15.619Z,95793.31
2022-11-24T21:38:43.942Z,95797.00
2022-11-24T21:41:14.046Z,95798.84
2022-11-24T21:43:42.323Z,95797.00
2022-11-24T21:46:11.787Z,95798.84
2022-11-24T21:48:40.508Z,95796.44
2022-11-24T21:51:11.019Z,95794.03
2022-11-24T21:53:40.720Z,95801.19
2022-11-24T21:56:12.885Z,95799.56
2022-11-24T21:58:45.583Z,95807.28
2022-11-24T22:01:13.922Z,95805.69
2022-11-24T22:03:42.237Z,95810.97
2022-11-24T22:06:10.574Z,95810.75
2022-11-24T22:08:40.282Z,95813.41
2022-11-24T22:11:09.871Z,95814.19
2022-11-24T22:13:38.124Z,95817.09
2022-11-24T22:16:07.319Z,95821.91
2022-11-24T22:18:36.147Z,95824.31
2022-11-24T22:21:04.456Z,95822.72
2022-11-24T22:23:32.707Z,95822.94
2022-11-24T22:26:05.143Z,95817.78
2022-11-24T22:28:33.754Z,95815.59
2022-11-24T22:31:05.145Z,95817.13
2022-11-24T22:33:33.529Z,95809.97
2022-11-24T22:36:01.945Z,95821.38
2022-11-24T22:38:30.460Z,95823.44
2022-11-24T22:41:02.464Z,95820.00
2022-11-24T22:43:33.234Z,95826.91
2022-11-24T22:46:05.021Z,95825.66
2022-11-24T22:48:33.393Z,95828.53
2022-11-24T22:51:05.571Z,95825.88
2022-11-24T22:53:34.117Z,95826.91
2022-11-24T22:56:02.950Z,95833.47
2022-11-24T22:58:33.735Z,95825.06
2022-11-24T23:01:06.037Z,95828.53
2022-11-24T23:03:34.725Z,95824.34
2022-11-24T23:06:03.381Z,95829.91
2022-11-24T23:08:31.695Z,95828.53
2022-11-24T23:11:01.285Z,95833.25
2022-11-24T23:13:29.537Z,95832.66
2022-11-24T23:16:02.965Z,95825.97
2022-11-24T23:18:31.326Z,95826.25
2022-11-24T23:21:06.306Z,95823.59
2022-11-24T23:23:34.742Z,95823.59
2022-11-24T23:26:03.227Z,95830.25
2022-11-24T23:28:31.536Z,95818.03
2022-11-24T23:31:04.134Z,95832.66
2022-11-24T23:33:32.650Z,95833.47
2022-11-24T23:36:02.206Z,95830.25
2022-11-24T23:38:32.707Z,95831.63
2022-11-24T23:41:01.227Z,95834.28
2022-11-24T23:43:29.695Z,95827.13
2022-11-24T23:46:04.073Z,95828.16
2022-11-24T23:48:32.559Z,95833.69
2022-11-24T23:51:05.047Z,95831.28
2022-11-24T23:53:33.762Z,95831.53
2022-11-24T23:56:02.144Z,95834.06
2022-11-24T23:58:30.387Z,95828.31
